createdAt,value
2023-08-26T00:00:48.282Z,98544.09
2023-08-26T00:03:50.183Z,98578.03
2023-08-26T00:06:52.205Z,98547.13
2023-08-26T00:09:54.077Z,98556.50
2023-08-26T00:12:56.402Z,98569.31
2023-08-26T00:15:58.282Z,98568.91
2023-08-26T00:19:03.468Z,98576.38
2023-08-26T00:22:06.328Z,98590.88
2023-08-26T00:25:08.725Z,98598.00
2023-08-26T00:28:10.473Z,98598.06
2023-08-26T00:31:12.708Z,98595.75
2023-08-26T00:34:14.566Z,98569.22
2023-08-26T00:37:16.755Z,98589.88
2023-08-26T00:40:19.005Z,98576.91
2023-08-26T00:43:21.186Z,98585.94
2023-08-26T00:46:26.540Z,98606.91
2023-08-26T00:49:29.161Z,98599.59
2023-08-26T00:52:32.491Z,98602.47
2023-08-26T00:55:36.595Z,98618.91
2023-08-26T00:58:38.994Z,98635.78
2023-08-26T01:01:42.853Z,98607.69
2023-08-26T01:04:44.806Z,98617.06
2023-08-26T01:07:46.916Z,98607.28
2023-08-26T01:11:01.637Z,98630.72
2023-08-26T01:14:18.411Z,98645.19
2023-08-26T01:17:21.879Z,98619.81
2023-08-26T01:20:25.777Z,98642.13
2023-08-26T01:23:35.530Z,98613.16
2023-08-26T01:26:37.280Z,98601.03
2023-08-26T01:29:39.159Z,98611.97
2023-08-26T01:32:45.604Z,98646.41
2023-08-26T01:35:50.374Z,98623.31
2023-08-26T01:38:55.590Z,98651.44
2023-08-26T01:42:00.072Z,98643.97
2023-08-26T01:45:02.008Z,98630.69
2023-08-26T01:48:04.018Z,98637.31
2023-08-26T01:51:06.192Z,98667.81
2023-08-26T01:54:08.062Z,98647.91
2023-08-26T01:57:10.006Z,98638.91
2023-08-26T02:00:12.436Z,98677.19
2023-08-26T02:03:16.922Z,98651.41
2023-08-26T02:06:19.813Z,98662.72
2023-08-26T02:09:22.462Z,98683.47
2023-08-26T02:12:24.182Z,98656.91
2023-08-26T02:15:26.296Z,98685.06
2023-08-26T02:18:32.660Z,98660.84
2023-08-26T02:21:34.416Z,98687.03
2023-08-26T02:24:37.241Z,98638.97
2023-08-26T02:27:39.037Z,98656.56
2023-08-26T02:30:40.928Z,98672.97
2023-08-26T02:33:42.791Z,98690.22
2023-08-26T02:36:45.891Z,98646.88
2023-08-26T02:39:47.648Z,98700.84
2023-08-26T02:42:49.503Z,98673.44
2023-08-26T02:45:59.003Z,98689.91
2023-08-26T02:49:02.500Z,98682.06
2023-08-26T02:52:04.698Z,98693.81
2023-08-26T02:55:06.671Z,98675.84
2023-08-26T02:58:09.295Z,98655.13
2023-08-26T03:01:11.143Z,98653.16
2023-08-26T03:04:12.992Z,98652.38
2023-08-26T03:07:14.828Z,98641.47
2023-08-26T03:10:16.664Z,98664.94
2023-08-26T03:13:18.994Z,98678.59
2023-08-26T03:16:23.518Z,98675.88
2023-08-26T03:19:25.398Z,98700.53
2023-08-26T03:22:27.588Z,98711.09
2023-08-26T03:25:35.234Z,98686.84
2023-08-26T03:28:37.606Z,98683.72
2023-08-26T03:31:44.520Z,98711.09
2023-08-26T03:34:49.506Z,98713.03
2023-08-26T03:37:51.342Z,98712.66
2023-08-26T03:40:53.154Z,98720.47
2023-08-26T03:43:58.300Z,98688.81
2023-08-26T03:47:00.003Z,98697.41
2023-08-26T03:50:02.260Z,98679.41
2023-08-26T03:53:04.387Z,98697.78
2023-08-26T03:56:06.377Z,98706.41
2023-08-26T03:59:09.209Z,98736.91
2023-08-26T04:02:11.618Z,98690.75
2023-08-26T04:05:14.413Z,98693.88
2023-08-26T04:08:16.400Z,98721.28
2023-08-26T04:11:18.944Z,98688.00
2023-08-26T04:14:20.804Z,98670.38
2023-08-26T04:17:22.618Z,98713.41
2023-08-26T04:20:24.279Z,98719.31
2023-08-26T04:23:26.328Z,98737.69
2023-08-26T04:26:29.298Z,98692.28
2023-08-26T04:29:31.185Z,98708.75
2023-08-26T04:32:33.835Z,98694.66
2023-08-26T04:35:38.966Z,98700.09
2023-08-26T04:38:41.901Z,98741.59
2023-08-26T04:41:44.850Z,98736.88
2023-08-26T04:44:49.752Z,98707.13
2023-08-26T04:47:52.393Z,98708.69
2023-08-26T04:50:57.719Z,98727.13
2023-08-26T04:54:00.150Z,98718.09
2023-08-26T04:57:03.480Z,98709.44
2023-08-26T05:00:12.418Z,98717.28
2023-08-26T05:03:14.616Z,98716.47
2023-08-26T05:06:16.798Z,98725.84
2023-08-26T05:09:18.507Z,98742.72
2023-08-26T05:12:22.863Z,98736.81
2023-08-26T05:15:28.106Z,98768.97
2023-08-26T05:18:30.670Z,98748.22
2023-08-26T05:21:32.869Z,98746.63
2023-08-26T05:24:35.263Z,98764.69
2023-08-26T05:27:37.953Z,98767.00
2023-08-26T05:30:39.916Z,98732.94
2023-08-26T05:33:41.826Z,98727.47
2023-08-26T05:36:43.892Z,98709.44
2023-08-26T05:39:45.745Z,98737.22
2023-08-26T05:42:47.414Z,98770.53
2023-08-26T05:45:49.286Z,98770.56
2023-08-26T05:48:51.262Z,98736.09
2023-08-26T05:51:53.332Z,98775.63
2023-08-26T05:54:55.391Z,98766.56
2023-08-26T05:57:57.603Z,98788.44
2023-08-26T06:01:00.438Z,98777.50
2023-08-26T06:04:03.184Z,98760.63
2023-08-26T06:07:06.494Z,98793.91
2023-08-26T06:10:08.377Z,98782.59
2023-08-26T06:13:13.402Z,98798.69
2023-08-26T06:16:20.454Z,98812.41
2023-08-26T06:19:22.390Z,98769.28
2023-08-26T06:22:24.208Z,98812.75
2023-08-26T06:25:26.050Z,98814.25
2023-08-26T06:28:27.781Z,98841.34
2023-08-26T06:31:31.660Z,98841.34
2023-08-26T06:34:33.559Z,98845.25
2023-08-26T06:37:36.346Z,98831.16
2023-08-26T06:40:38.264Z,98823.31
2023-08-26T06:43:40.227Z,98810.78
2023-08-26T06:46:42.091Z,98791.56
2023-08-26T06:49:44.567Z,98798.19
2023-08-26T06:52:47.897Z,98781.41
2023-08-26T06:55:52.847Z,98786.09
2023-08-26T06:58:54.730Z,98798.56
2023-08-26T07:01:56.626Z,98784.50
2023-08-26T07:05:00.273Z,98764.16
2023-08-26T07:08:02.082Z,98763.81
2023-08-26T07:11:06.690Z,98741.13
2023-08-26T07:14:08.441Z,98794.41
2023-08-26T07:17:10.210Z,98785.03
2023-08-26T07:20:12.473Z,98778.78
2023-08-26T07:23:14.199Z,98758.38
2023-08-26T07:26:15.914Z,98791.66
2023-08-26T07:29:17.839Z,98776.03
2023-08-26T07:32:19.656Z,98758.84
2023-08-26T07:35:21.781Z,98756.09
2023-08-26T07:38:23.510Z,98777.63
2023-08-26T07:41:26.995Z,98742.34
2023-08-26T07:44:29.955Z,98787.25
2023-08-26T07:50:39.428Z,98806.91
2023-08-26T07:53:41.198Z,98764.44
2023-08-26T07:56:43.033Z,98802.09
2023-08-26T07:59:44.837Z,98771.19
2023-08-26T08:02:46.564Z,98780.94
2023-08-26T08:05:48.443Z,98761.34
2023-08-26T08:08:50.211Z,98793.00
2023-08-26T08:11:51.951Z,98757.75
2023-08-26T08:14:53.782Z,98767.78
2023-08-26T08:17:56.450Z,98787.94
2023-08-26T08:20:58.679Z,98768.13
2023-08-26T08:24:01.469Z,98760.84
2023-08-26T08:27:03.586Z,98753.31
2023-08-26T08:30:06.410Z,98789.66
2023-08-26T08:33:11.399Z,98742.28
2023-08-26T08:36:13.274Z,98781.72
2023-08-26T08:39:17.402Z,98797.91
2023-08-26T08:42:19.824Z,98778.13
2023-08-26T08:45:22.798Z,98766.28
2023-08-26T08:48:24.699Z,98761.53
2023-08-26T08:51:30.128Z,98794.56
2023-08-26T08:54:33.484Z,98793.69
2023-08-26T08:57:41.685Z,98776.50
2023-08-26T09:00:43.587Z,98762.97
2023-08-26T09:03:47.824Z,98761.09
2023-08-26T09:06:50.369Z,98761.81
2023-08-26T09:10:01.980Z,98759.50
2023-08-26T09:13:05.879Z,98744.31
2023-08-26T09:16:08.842Z,98740.47
2023-08-26T09:19:14.276Z,98782.34
2023-08-26T09:22:18.070Z,98771.78
2023-08-26T09:25:19.810Z,98743.88
2023-08-26T09:28:21.729Z,98764.53
2023-08-26T09:31:23.701Z,98761.19
2023-08-26T09:34:31.285Z,98764.25
2023-08-26T09:37:33.362Z,98747.47
2023-08-26T09:40:35.212Z,98765.06
2023-08-26T09:43:37.380Z,98733.25
2023-08-26T09:46:41.334Z,98724.47
2023-08-26T09:49:49.504Z,98730.66
2023-08-26T09:52:53.654Z,98734.72
2023-08-26T09:55:57.828Z,98739.09
2023-08-26T09:58:59.588Z,98768.16
2023-08-26T10:02:07.893Z,98767.63
2023-08-26T10:05:16.065Z,98735.00
2023-08-26T10:08:20.767Z,98772.56
2023-08-26T10:11:23.329Z,98770.22
2023-08-26T10:14:26.878Z,98779.09
2023-08-26T10:17:31.990Z,98751.34
2023-08-26T10:20:34.849Z,98781.44
2023-08-26T10:23:38.244Z,98762.09
2023-08-26T10:26:41.197Z,98777.63
2023-08-26T10:29:44.737Z,98773.72
2023-08-26T10:32:48.238Z,98765.09
2023-08-26T10:36:17.657Z,98811.69
2023-08-26T10:39:22.720Z,98775.69
2023-08-26T10:42:25.086Z,98773.06
2023-08-26T10:45:27.375Z,98792.25
2023-08-26T10:48:29.202Z,98782.91
2023-08-26T10:51:37.617Z,98754.69
2023-08-26T10:54:43.471Z,98809.50
2023-08-26T10:58:09.875Z,98797.00
2023-08-26T11:01:12.560Z,98764.91
2023-08-26T11:04:14.336Z,98775.50
2023-08-26T11:07:17.655Z,98747.03
2023-08-26T11:10:32.004Z,98773.31
2023-08-26T11:13:33.794Z,98790.91
2023-08-26T11:16:35.678Z,98785.41
2023-08-26T11:19:38.519Z,98761.94
2023-08-26T11:22:40.555Z,98806.56
2023-08-26T11:25:42.291Z,98781.91
2023-08-26T11:28:48.443Z,98784.25
2023-08-26T11:31:50.283Z,98764.28
2023-08-26T11:34:53.856Z,98794.03
2023-08-26T11:37:55.842Z,98780.34
2023-08-26T11:40:57.945Z,98813.25
2023-08-26T11:44:00.078Z,98788.56
2023-08-26T11:47:01.954Z,98826.53
2023-08-26T11:50:04.961Z,98806.19
2023-08-26T11:53:07.275Z,98835.16
2023-08-26T11:56:09.238Z,98797.94
2023-08-26T11:59:21.387Z,98830.06
2023-08-26T12:02:25.840Z,98823.75
2023-08-26T12:05:30.911Z,98808.75
2023-08-26T12:08:33.501Z,98806.34
2023-08-26T12:11:39.453Z,98818.03
2023-08-26T12:14:41.216Z,98847.41
2023-08-26T12:17:48.234Z,98819.56
2023-08-26T12:20:51.269Z,98832.84
2023-08-26T12:23:53.107Z,98809.69
2023-08-26T12:26:55.167Z,98793.63
2023-08-26T12:29:56.965Z,98791.75
2023-08-26T12:32:58.742Z,98754.63
2023-08-26T12:36:00.532Z,98768.69
2023-08-26T12:39:02.267Z,98755.66
2023-08-26T12:42:04.219Z,98793.19
2023-08-26T12:45:06.721Z,98776.19
2023-08-26T12:48:08.573Z,98759.81
2023-08-26T12:51:11.089Z,98761.03
2023-08-26T12:54:13.348Z,98770.44
2023-08-26T12:57:16.310Z,98777.38
2023-08-26T13:00:18.282Z,98811.44
2023-08-26T13:03:23.092Z,98807.47
2023-08-26T13:06:27.570Z,98786.38
2023-08-26T13:09:30.481Z,98768.38
2023-08-26T13:12:32.397Z,98795.94
2023-08-26T13:15:34.456Z,98742.66
2023-08-26T13:18:36.242Z,98747.41
2023-08-26T13:21:38.014Z,98790.88
2023-08-26T13:24:43.551Z,98796.75
2023-08-26T13:27:45.415Z,98798.34
2023-08-26T13:30:47.968Z,98746.31
2023-08-26T13:33:49.831Z,98737.00
2023-08-26T13:36:54.377Z,98765.59
2023-08-26T13:39:56.399Z,98732.03
2023-08-26T13:42:58.273Z,98709.72
2023-08-26T13:46:04.056Z,98718.81
2023-08-26T13:49:05.893Z,98729.44
2023-08-26T13:52:07.742Z,98700.84
2023-08-26T13:55:11.665Z,98724.78
2023-08-26T13:58:15.899Z,98711.41
2023-08-26T14:01:19.373Z,98718.75
2023-08-26T14:04:22.381Z,98710.88
2023-08-26T14:07:24.288Z,98710.13
2023-08-26T14:10:27.992Z,98717.09
2023-08-26T14:13:29.930Z,98693.81
2023-08-26T14:16:31.793Z,98709.88
2023-08-26T14:19:37.205Z,98684.09
2023-08-26T14:22:39.056Z,98704.06
2023-08-26T14:25:43.457Z,98711.91
2023-08-26T14:28:45.191Z,98713.38
2023-08-26T14:31:47.086Z,98679.22
2023-08-26T14:34:48.837Z,98681.59
2023-08-26T14:37:50.568Z,98696.78
2023-08-26T14:40:52.460Z,98650.16
2023-08-26T14:43:54.353Z,98679.13
2023-08-26T14:46:56.193Z,98638.56
2023-08-26T14:49:57.951Z,98650.63
2023-08-26T14:53:00.781Z,98655.78
2023-08-26T14:56:04.161Z,98680.28
2023-08-26T14:59:05.954Z,98650.16
2023-08-26T15:02:07.740Z,98663.22
2023-08-26T15:05:10.024Z,98665.28
2023-08-26T15:08:11.789Z,98687.63
2023-08-26T15:11:13.632Z,98686.09
2023-08-26T15:14:15.340Z,98650.06
2023-08-26T15:17:17.181Z,98707.50
2023-08-26T15:20:19.215Z,98673.09
2023-08-26T15:23:21.345Z,98729.09
2023-08-26T15:26:23.073Z,98697.47
2023-08-26T15:29:24.837Z,98695.88
2023-08-26T15:32:26.603Z,98690.38
2023-08-26T15:35:29.640Z,98688.88
2023-08-26T15:38:31.565Z,98685.75
2023-08-26T15:41:33.355Z,98705.38
2023-08-26T15:44:35.150Z,98711.59
2023-08-26T15:47:36.935Z,98694.06
2023-08-26T15:50:41.254Z,98739.81
2023-08-26T15:53:43.109Z,98716.34
2023-08-26T15:56:45.620Z,98734.00
2023-08-26T15:59:47.527Z,98701.94
2023-08-26T16:02:49.575Z,98690.59
2023-08-26T16:05:54.705Z,98703.94
2023-08-26T16:08:56.720Z,98721.09
2023-08-26T16:11:59.391Z,98683.59
2023-08-26T16:15:02.765Z,98734.81
2023-08-26T16:18:04.687Z,98685.97
2023-08-26T16:21:07.986Z,98686.72
2023-08-26T16:24:11.154Z,98709.44
2023-08-26T16:27:12.904Z,98692.59
2023-08-26T16:30:15.228Z,98695.75
2023-08-26T16:33:17.307Z,98693.38
2023-08-26T16:36:19.238Z,98714.94
2023-08-26T16:39:20.999Z,98689.88
2023-08-26T16:42:22.808Z,98684.81
2023-08-26T16:45:24.617Z,98707.91
2023-08-26T16:48:26.996Z,98685.63
2023-08-26T16:51:28.935Z,98657.88
2023-08-26T16:54:30.810Z,98675.09
2023-08-26T16:57:32.593Z,98702.06
2023-08-26T17:00:35.148Z,98691.50
2023-08-26T17:03:36.918Z,98669.25
2023-08-26T17:06:38.726Z,98705.59
2023-08-26T17:09:40.420Z,98711.88
2023-08-26T17:12:42.118Z,98702.47
2023-08-26T17:15:43.860Z,98706.78
2023-08-26T17:18:45.644Z,98688.78
2023-08-26T17:21:47.521Z,98688.78
2023-08-26T17:24:51.074Z,98673.94
2023-08-26T17:27:53.144Z,98704.84
2023-08-26T17:30:56.235Z,98690.75
2023-08-26T17:33:58.109Z,98689.97
2023-08-26T17:37:00.026Z,98679.78
2023-08-26T17:40:01.769Z,98684.06
2023-08-26T17:43:03.538Z,98690.31
2023-08-26T17:46:05.326Z,98680.16
2023-08-26T17:49:07.105Z,98711.84
2023-08-26T17:52:09.213Z,98684.47
2023-08-26T17:55:11.452Z,98688.72
2023-08-26T17:58:13.398Z,98731.81
2023-08-26T18:01:15.199Z,98676.97
2023-08-26T18:04:18.128Z,98728.28
2023-08-26T18:07:20.346Z,98709.84
2023-08-26T18:10:25.355Z,98701.22
2023-08-26T18:13:27.145Z,98732.94
2023-08-26T18:16:29.237Z,98698.09
2023-08-26T18:19:31.095Z,98688.72
2023-08-26T18:22:32.790Z,98690.25
2023-08-26T18:25:35.225Z,98716.81
2023-08-26T18:28:39.962Z,98712.50
2023-08-26T18:31:42.132Z,98678.06
2023-08-26T18:34:46.333Z,98702.31
2023-08-26T18:37:48.141Z,98678.44
2023-08-26T18:40:57.337Z,98714.41
2023-08-26T18:43:59.061Z,98710.91
2023-08-26T18:47:00.781Z,98719.53
2023-08-26T18:50:05.104Z,98709.75
2023-08-26T18:53:09.790Z,98728.09
2023-08-26T18:56:11.709Z,98680.78
2023-08-26T18:59:13.581Z,98714.81
2023-08-26T19:02:15.499Z,98717.91
2023-08-26T19:05:19.192Z,98714.75
2023-08-26T19:08:20.977Z,98732.75
2023-08-26T19:11:22.713Z,98721.03
2023-08-26T19:14:24.642Z,98728.13
2023-08-26T19:17:26.511Z,98706.94
2023-08-26T19:20:28.292Z,98729.25
2023-08-26T19:23:30.016Z,98726.50
2023-08-26T19:26:33.169Z,98691.72
2023-08-26T19:29:36.009Z,98720.69
2023-08-26T19:32:37.847Z,98691.72
2023-08-26T19:35:40.938Z,98690.88
2023-08-26T19:38:42.880Z,98693.22
2023-08-26T19:41:44.696Z,98675.63
2023-08-26T19:44:46.489Z,98672.13
2023-08-26T19:47:48.312Z,98698.75
2023-08-26T19:50:50.454Z,98684.22
2023-08-26T19:53:54.281Z,98687.34
2023-08-26T19:56:56.458Z,98681.09
2023-08-26T19:59:58.894Z,98645.78
2023-08-26T20:03:01.025Z,98677.84
2023-08-26T20:06:03.267Z,98689.94
2023-08-26T20:09:05.037Z,98689.16
2023-08-26T20:12:07.040Z,98698.16
2023-08-26T20:15:09.047Z,98684.75
2023-08-26T20:18:10.919Z,98657.34
2023-08-26T20:21:12.798Z,98673.38
2023-08-26T20:24:14.553Z,98691.03
2023-08-26T20:27:16.871Z,98706.66
2023-08-26T20:30:18.954Z,98671.03
2023-08-26T20:33:20.858Z,98657.31
2023-08-26T20:36:22.640Z,98702.41
2023-08-26T20:39:27.499Z,98683.63
2023-08-26T20:42:29.330Z,98651.84
2023-08-26T20:45:32.738Z,98663.56
2023-08-26T20:48:34.684Z,98660.44
2023-08-26T20:51:36.502Z,98660.06
2023-08-26T20:54:38.190Z,98650.28
2023-08-26T20:57:40.062Z,98671.44
2023-08-26T21:00:44.473Z,98652.97
2023-08-26T21:03:46.774Z,98676.56
2023-08-26T21:06:48.546Z,98683.19
2023-08-26T21:09:50.381Z,98646.75
2023-08-26T21:12:52.252Z,98671.44
2023-08-26T21:15:54.232Z,98680.13
2023-08-26T21:18:56.221Z,98689.09
2023-08-26T21:21:58.548Z,98683.63
2023-08-26T21:25:00.381Z,98660.53
2023-08-26T21:28:02.224Z,98670.28
2023-08-26T21:31:08.395Z,98632.34
2023-08-26T21:34:10.251Z,98652.75
2023-08-26T21:37:12.440Z,98648.09
2023-08-26T21:40:17.448Z,98628.06
2023-08-26T21:43:19.432Z,98659.81
2023-08-26T21:46:21.472Z,98626.91
2023-08-26T21:49:23.412Z,98639.81
2023-08-26T21:52:25.259Z,98657.75
2023-08-26T21:55:27.005Z,98637.44
2023-08-26T21:58:28.832Z,98641.75
2023-08-26T22:01:30.699Z,98616.75
2023-08-26T22:04:32.644Z,98605.44
2023-08-26T22:07:34.385Z,98592.88
2023-08-26T22:10:37.938Z,98635.19
2023-08-26T22:13:39.736Z,98583.94
2023-08-26T22:16:41.781Z,98578.09
2023-08-26T22:19:43.515Z,98611.78
2023-08-26T22:22:47.154Z,98567.59
2023-08-26T22:25:49.117Z,98591.47
2023-08-26T22:28:50.879Z,98608.25
2023-08-26T22:31:52.622Z,98568.16
2023-08-26T22:34:54.353Z,98614.31
2023-08-26T22:37:56.198Z,98628.03
2023-08-26T22:40:58.092Z,98613.59
2023-08-26T22:44:02.885Z,98598.34
2023-08-26T22:47:04.941Z,98576.03
2023-08-26T22:50:06.871Z,98566.19
2023-08-26T22:53:08.796Z,98563.88
2023-08-26T22:56:10.594Z,98574.81
2023-08-26T22:59:12.314Z,98568.53
2023-08-26T23:02:17.096Z,98548.56
2023-08-26T23:05:18.999Z,98592.47
2023-08-26T23:08:20.963Z,98547.03
2023-08-26T23:11:23.055Z,98563.09
2023-08-26T23:14:25.613Z,98557.22
2023-08-26T23:17:27.652Z,98546.66
2023-08-26T23:20:29.468Z,98541.53
2023-08-26T23:23:31.294Z,98525.16
2023-08-26T23:26:33.110Z,98552.59
2023-08-26T23:29:35.190Z,98525.97
2023-08-26T23:32:37.095Z,98507.97
2023-08-26T23:35:39.180Z,98502.59
2023-08-26T23:38:41.462Z,98512.38
2023-08-26T23:41:43.472Z,98497.09
2023-08-26T23:44:45.319Z,98546.38
2023-08-26T23:47:47.257Z,98527.13
2023-08-26T23:50:48.958Z,98568.22
2023-08-26T23:53:50.708Z,98576.38
2023-08-26T23:56:52.956Z,98557.94
2023-08-26T23:59:54.719Z,98544.25
